sensor_id;sensor_type;location;lat;lon;timestamp;P1;durP1;ratioP1;P2;durP2;ratioP2
173;SDS011;75;48.784;9.364;2022-09-27T00:00:03;3.50;;;2.20;;
173;SDS011;75;48.784;9.364;2022-09-27T00:02:29;3.00;;;2.10;;
173;SDS011;75;48.784;9.364;2022-09-27T00:04:55;3.10;;;2.30;;
173;SDS011;75;48.784;9.364;2022-09-27T00:07:22;3.53;;;2.17;;
173;SDS011;75;48.784;9.364;2022-09-27T00:09:48;3.13;;;2.23;;
173;SDS011;75;48.784;9.364;2022-09-27T00:12:14;4.20;;;2.30;;
173;SDS011;75;48.784;9.364;2022-09-27T00:14:40;9.40;;;3.80;;
173;SDS011;75;48.784;9.364;2022-09-27T00:17:06;4.57;;;2.30;;
173;SDS011;75;48.784;9.364;2022-09-27T00:19:32;2.90;;;2.23;;
173;SDS011;75;48.784;9.364;2022-09-27T00:21:59;2.93;;;2.03;;
173;SDS011;75;48.784;9.364;2022-09-27T00:24:25;3.43;;;2.33;;
173;SDS011;75;48.784;9.364;2022-09-27T00:26:51;4.60;;;2.40;;
173;SDS011;75;48.784;9.364;2022-09-27T00:29:18;4.03;;;2.33;;
173;SDS011;75;48.784;9.364;2022-09-27T00:31:44;4.53;;;2.43;;
173;SDS011;75;48.784;9.364;2022-09-27T00:34:17;3.83;;;2.47;;
173;SDS011;75;48.784;9.364;2022-09-27T00:36:43;3.90;;;2.50;;
173;SDS011;75;48.784;9.364;2022-09-27T00:39:09;4.10;;;2.47;;
173;SDS011;75;48.784;9.364;2022-09-27T00:41:35;3.40;;;2.23;;
173;SDS011;75;48.784;9.364;2022-09-27T00:44:58;3.80;;;2.50;;
173;SDS011;75;48.784;9.364;2022-09-27T00:49:36;3.03;;;2.27;;
173;SDS011;75;48.784;9.364;2022-09-27T00:52:06;3.17;;;2.20;;
173;SDS011;75;48.784;9.364;2022-09-27T00:54:33;4.17;;;2.10;;
173;SDS011;75;48.784;9.364;2022-09-27T00:57:00;6.40;;;2.20;;
173;SDS011;75;48.784;9.364;2022-09-27T00:59:38;3.70;;;2.30;;
173;SDS011;75;48.784;9.364;2022-09-27T01:05:04;3.57;;;2.40;;
173;SDS011;75;48.784;9.364;2022-09-27T01:07:31;3.27;;;2.37;;
173;SDS011;75;48.784;9.364;2022-09-27T01:09:57;4.10;;;2.30;;
173;SDS011;75;48.784;9.364;2022-09-27T01:22:45;3.07;;;2.10;;
173;SDS011;75;48.784;9.364;2022-09-27T01:27:57;5.80;;;2.03;;
173;SDS011;75;48.784;9.364;2022-09-27T01:30:26;3.43;;;1.97;;
173;SDS011;75;48.784;9.364;2022-09-27T01:35:41;4.23;;;2.00;;
173;SDS011;75;48.784;9.364;2022-09-27T01:40:48;3.17;;;1.80;;
173;SDS011;75;48.784;9.364;2022-09-27T01:43:21;2.83;;;1.80;;
173;SDS011;75;48.784;9.364;2022-09-27T01:45:55;3.77;;;1.97;;
173;SDS011;75;48.784;9.364;2022-09-27T01:48:23;3.40;;;1.90;;
173;SDS011;75;48.784;9.364;2022-09-27T01:51:09;2.73;;;1.90;;
173;SDS011;75;48.784;9.364;2022-09-27T01:53:40;2.53;;;1.80;;
173;SDS011;75;48.784;9.364;2022-09-27T01:56:09;5.00;;;1.97;;
173;SDS011;75;48.784;9.364;2022-09-27T02:01:05;2.50;;;1.70;;
173;SDS011;75;48.784;9.364;2022-09-27T02:03:38;4.10;;;1.80;;
173;SDS011;75;48.784;9.364;2022-09-27T02:06:12;3.30;;;1.60;;
173;SDS011;75;48.784;9.364;2022-09-27T02:11:08;2.40;;;1.80;;
173;SDS011;75;48.784;9.364;2022-09-27T02:13:37;2.17;;;1.53;;
173;SDS011;75;48.784;9.364;2022-09-27T02:21:29;2.70;;;1.70;;
173;SDS011;75;48.784;9.364;2022-09-27T02:23:57;3.10;;;1.93;;
173;SDS011;75;48.784;9.364;2022-09-27T02:26:34;3.43;;;1.60;;
173;SDS011;75;48.784;9.364;2022-09-27T02:29:15;3.10;;;1.83;;
173;SDS011;75;48.784;9.364;2022-09-27T02:31:42;3.10;;;1.70;;
173;SDS011;75;48.784;9.364;2022-09-27T02:34:10;3.53;;;2.10;;
173;SDS011;75;48.784;9.364;2022-09-27T02:36:39;2.80;;;2.03;;
173;SDS011;75;48.784;9.364;2022-09-27T02:39:05;12.60;;;2.23;;
173;SDS011;75;48.784;9.364;2022-09-27T02:41:31;3.27;;;1.83;;
173;SDS011;75;48.784;9.364;2022-09-27T02:43:58;2.80;;;2.00;;
173;SDS011;75;48.784;9.364;2022-09-27T02:47:16;3.13;;;2.10;;
173;SDS011;75;48.784;9.364;2022-09-27T02:49:29;3.80;;;2.27;;
173;SDS011;75;48.784;9.364;2022-09-27T02:54:34;4.90;;;2.13;;
173;SDS011;75;48.784;9.364;2022-09-27T02:59:58;3.70;;;1.87;;
173;SDS011;75;48.784;9.364;2022-09-27T03:04:58;4.50;;;2.20;;
173;SDS011;75;48.784;9.364;2022-09-27T03:07:26;2.97;;;1.70;;
173;SDS011;75;48.784;9.364;2022-09-27T03:09:54;2.80;;;1.70;;
173;SDS011;75;48.784;9.364;2022-09-27T03:12:20;4.03;;;1.90;;
173;SDS011;75;48.784;9.364;2022-09-27T03:14:56;3.30;;;1.80;;
173;SDS011;75;48.784;9.364;2022-09-27T03:17:22;3.13;;;1.90;;
173;SDS011;75;48.784;9.364;2022-09-27T03:19:49;3.17;;;1.90;;
173;SDS011;75;48.784;9.364;2022-09-27T03:22:15;3.67;;;2.07;;
173;SDS011;75;48.784;9.364;2022-09-27T03:24:41;3.83;;;2.10;;
173;SDS011;75;48.784;9.364;2022-09-27T03:27:07;3.50;;;1.90;;
173;SDS011;75;48.784;9.364;2022-09-27T03:29:34;3.53;;;2.13;;
173;SDS011;75;48.784;9.364;2022-09-27T03:32:00;7.23;;;2.10;;
173;SDS011;75;48.784;9.364;2022-09-27T03:34:26;5.93;;;2.00;;
173;SDS011;75;48.784;9.364;2022-09-27T03:36:53;4.30;;;2.00;;
173;SDS011;75;48.784;9.364;2022-09-27T03:39:19;4.30;;;2.03;;
173;SDS011;75;48.784;9.364;2022-09-27T03:41:45;3.20;;;2.00;;
173;SDS011;75;48.784;9.364;2022-09-27T03:44:11;3.80;;;1.90;;
173;SDS011;75;48.784;9.364;2022-09-27T03:46:37;2.87;;;2.00;;
173;SDS011;75;48.784;9.364;2022-09-27T03:49:03;4.83;;;2.30;;
173;SDS011;75;48.784;9.364;2022-09-27T03:51:29;3.87;;;2.10;;
173;SDS011;75;48.784;9.364;2022-09-27T03:53:55;3.53;;;2.20;;
173;SDS011;75;48.784;9.364;2022-09-27T03:56:21;4.70;;;2.20;;
173;SDS011;75;48.784;9.364;2022-09-27T03:58:48;3.10;;;1.90;;
173;SDS011;75;48.784;9.364;2022-09-27T04:01:14;5.50;;;2.10;;
173;SDS011;75;48.784;9.364;2022-09-27T04:03:40;3.80;;;2.10;;
173;SDS011;75;48.784;9.364;2022-09-27T04:06:06;4.40;;;2.07;;
173;SDS011;75;48.784;9.364;2022-09-27T04:08:32;4.30;;;2.20;;
173;SDS011;75;48.784;9.364;2022-09-27T04:10:58;3.70;;;2.30;;
173;SDS011;75;48.784;9.364;2022-09-27T04:13:24;5.07;;;3.33;;
173;SDS011;75;48.784;9.364;2022-09-27T04:15:50;3.83;;;2.40;;
173;SDS011;75;48.784;9.364;2022-09-27T04:18:16;4.73;;;2.40;;
173;SDS011;75;48.784;9.364;2022-09-27T04:20:42;4.10;;;2.40;;
173;SDS011;75;48.784;9.364;2022-09-27T04:23:08;4.90;;;2.60;;
173;SDS011;75;48.784;9.364;2022-09-27T04:25:34;5.43;;;2.80;;
173;SDS011;75;48.784;9.364;2022-09-27T04:28:01;4.37;;;2.80;;
173;SDS011;75;48.784;9.364;2022-09-27T04:30:27;4.00;;;2.80;;
173;SDS011;75;48.784;9.364;2022-09-27T04:32:53;6.00;;;2.90;;
173;SDS011;75;48.784;9.364;2022-09-27T04:35:19;5.23;;;3.00;;
173;SDS011;75;48.784;9.364;2022-09-27T04:38:04;8.07;;;3.20;;
173;SDS011;75;48.784;9.364;2022-09-27T04:40:32;6.00;;;3.07;;
173;SDS011;75;48.784;9.364;2022-09-27T04:42:59;5.70;;;3.57;;
173;SDS011;75;48.784;9.364;2022-09-27T04:45:25;6.70;;;3.10;;
173;SDS011;75;48.784;9.364;2022-09-27T04:47:51;4.80;;;3.00;;
173;SDS011;75;48.784;9.364;2022-09-27T04:50:18;6.20;;;3.33;;
173;SDS011;75;48.784;9.364;2022-09-27T04:52:48;5.33;;;3.30;;
173;SDS011;75;48.784;9.364;2022-09-27T04:55:15;7.73;;;3.53;;
173;SDS011;75;48.784;9.364;2022-09-27T04:57:41;6.57;;;3.50;;
173;SDS011;75;48.784;9.364;2022-09-27T05:00:07;9.33;;;3.80;;
173;SDS011;75;48.784;9.364;2022-09-27T05:02:34;6.87;;;3.47;;
173;SDS011;75;48.784;9.364;2022-09-27T05:05:00;6.13;;;3.60;;
173;SDS011;75;48.784;9.364;2022-09-27T05:07:26;5.93;;;3.40;;
173;SDS011;75;48.784;9.364;2022-09-27T05:09:52;6.63;;;3.33;;
173;SDS011;75;48.784;9.364;2022-09-27T05:12:19;5.80;;;3.30;;
173;SDS011;75;48.784;9.364;2022-09-27T05:14:45;6.00;;;3.60;;
173;SDS011;75;48.784;9.364;2022-09-27T05:17:12;5.80;;;3.20;;
173;SDS011;75;48.784;9.364;2022-09-27T05:19:38;5.73;;;3.50;;
173;SDS011;75;48.784;9.364;2022-09-27T05:22:04;7.70;;;3.33;;
173;SDS011;75;48.784;9.364;2022-09-27T05:24:31;6.30;;;3.43;;
173;SDS011;75;48.784;9.364;2022-09-27T05:26:57;5.10;;;3.03;;
173;SDS011;75;48.784;9.364;2022-09-27T05:29:23;7.10;;;3.73;;
173;SDS011;75;48.784;9.364;2022-09-27T05:31:49;7.00;;;4.40;;
173;SDS011;75;48.784;9.364;2022-09-27T05:34:15;5.77;;;3.83;;
173;SDS011;75;48.784;9.364;2022-09-27T05:36:46;9.90;;;4.30;;
173;SDS011;75;48.784;9.364;2022-09-27T05:39:12;5.90;;;3.80;;
173;SDS011;75;48.784;9.364;2022-09-27T05:41:40;8.03;;;3.80;;
173;SDS011;75;48.784;9.364;2022-09-27T05:44:06;7.90;;;3.43;;
173;SDS011;75;48.784;9.364;2022-09-27T05:46:32;7.43;;;3.60;;
173;SDS011;75;48.784;9.364;2022-09-27T05:48:59;5.77;;;3.50;;
173;SDS011;75;48.784;9.364;2022-09-27T05:51:25;7.50;;;3.93;;
173;SDS011;75;48.784;9.364;2022-09-27T05:53:51;6.00;;;3.20;;
173;SDS011;75;48.784;9.364;2022-09-27T05:56:17;7.87;;;3.70;;
173;SDS011;75;48.784;9.364;2022-09-27T05:58:43;9.87;;;3.87;;
173;SDS011;75;48.784;9.364;2022-09-27T06:01:09;5.30;;;3.50;;
173;SDS011;75;48.784;9.364;2022-09-27T06:03:35;8.23;;;4.00;;
173;SDS011;75;48.784;9.364;2022-09-27T06:06:01;7.93;;;3.70;;
173;SDS011;75;48.784;9.364;2022-09-27T06:08:31;7.17;;;3.70;;
173;SDS011;75;48.784;9.364;2022-09-27T06:11:03;8.97;;;3.43;;
173;SDS011;75;48.784;9.364;2022-09-27T06:13:30;7.77;;;3.03;;
173;SDS011;75;48.784;9.364;2022-09-27T06:15:57;6.93;;;3.40;;
173;SDS011;75;48.784;9.364;2022-09-27T06:18:23;6.80;;;3.30;;
173;SDS011;75;48.784;9.364;2022-09-27T06:20:50;5.63;;;3.23;;
173;SDS011;75;48.784;9.364;2022-09-27T06:23:17;5.53;;;3.30;;
173;SDS011;75;48.784;9.364;2022-09-27T06:25:43;5.60;;;3.20;;
173;SDS011;75;48.784;9.364;2022-09-27T06:28:09;4.07;;;2.93;;
173;SDS011;75;48.784;9.364;2022-09-27T06:30:39;4.20;;;2.83;;
173;SDS011;75;48.784;9.364;2022-09-27T06:33:05;5.60;;;2.60;;
173;SDS011;75;48.784;9.364;2022-09-27T06:35:33;6.33;;;3.47;;
173;SDS011;75;48.784;9.364;2022-09-27T06:38:01;6.90;;;3.07;;
173;SDS011;75;48.784;9.364;2022-09-27T06:40:28;5.77;;;3.50;;
173;SDS011;75;48.784;9.364;2022-09-27T06:42:54;6.43;;;3.27;;
173;SDS011;75;48.784;9.364;2022-09-27T06:45:23;5.00;;;2.60;;
173;SDS011;75;48.784;9.364;2022-09-27T06:47:49;5.33;;;3.17;;
173;SDS011;75;48.784;9.364;2022-09-27T06:50:15;4.03;;;2.70;;
173;SDS011;75;48.784;9.364;2022-09-27T06:52:47;5.00;;;2.80;;
173;SDS011;75;48.784;9.364;2022-09-27T06:55:14;8.43;;;5.40;;
173;SDS011;75;48.784;9.364;2022-09-27T06:57:40;5.50;;;3.13;;
173;SDS011;75;48.784;9.364;2022-09-27T07:00:25;4.03;;;2.50;;
173;SDS011;75;48.784;9.364;2022-09-27T07:02:51;3.67;;;2.60;;
173;SDS011;75;48.784;9.364;2022-09-27T07:05:18;4.00;;;2.10;;
173;SDS011;75;48.784;9.364;2022-09-27T07:07:44;5.00;;;2.90;;
173;SDS011;75;48.784;9.364;2022-09-27T07:10:14;3.67;;;2.53;;
173;SDS011;75;48.784;9.364;2022-09-27T07:12:42;2.90;;;2.10;;
173;SDS011;75;48.784;9.364;2022-09-27T07:15:12;3.43;;;2.30;;
173;SDS011;75;48.784;9.364;2022-09-27T07:17:38;3.10;;;2.17;;
173;SDS011;75;48.784;9.364;2022-09-27T07:20:04;4.63;;;2.10;;
173;SDS011;75;48.784;9.364;2022-09-27T07:22:30;3.83;;;2.00;;
173;SDS011;75;48.784;9.364;2022-09-27T07:24:56;2.93;;;1.83;;
173;SDS011;75;48.784;9.364;2022-09-27T07:27:22;4.47;;;1.80;;
173;SDS011;75;48.784;9.364;2022-09-27T07:29:50;5.00;;;1.97;;
173;SDS011;75;48.784;9.364;2022-09-27T07:32:16;2.53;;;1.60;;
173;SDS011;75;48.784;9.364;2022-09-27T07:34:42;3.20;;;1.80;;
173;SDS011;75;48.784;9.364;2022-09-27T07:37:12;3.37;;;1.90;;
173;SDS011;75;48.784;9.364;2022-09-27T07:39:38;5.20;;;2.27;;
173;SDS011;75;48.784;9.364;2022-09-27T07:42:04;4.93;;;2.60;;
173;SDS011;75;48.784;9.364;2022-09-27T07:44:30;2.97;;;1.70;;
173;SDS011;75;48.784;9.364;2022-09-27T07:46:56;2.40;;;1.60;;
173;SDS011;75;48.784;9.364;2022-09-27T07:49:22;3.20;;;2.00;;
173;SDS011;75;48.784;9.364;2022-09-27T07:51:48;2.57;;;1.60;;
173;SDS011;75;48.784;9.364;2022-09-27T07:54:15;3.60;;;1.80;;
173;SDS011;75;48.784;9.364;2022-09-27T07:56:43;4.47;;;1.80;;
173;SDS011;75;48.784;9.364;2022-09-27T07:59:09;2.70;;;1.87;;
173;SDS011;75;48.784;9.364;2022-09-27T08:01:35;3.40;;;2.10;;
173;SDS011;75;48.784;9.364;2022-09-27T08:04:01;4.00;;;1.77;;
173;SDS011;75;48.784;9.364;2022-09-27T08:06:28;4.10;;;2.50;;
173;SDS011;75;48.784;9.364;2022-09-27T08:08:54;3.07;;;1.80;;
173;SDS011;75;48.784;9.364;2022-09-27T08:11:22;3.33;;;1.60;;
173;SDS011;75;48.784;9.364;2022-09-27T08:13:48;2.60;;;1.80;;
173;SDS011;75;48.784;9.364;2022-09-27T08:16:16;2.97;;;1.90;;
173;SDS011;75;48.784;9.364;2022-09-27T08:18:42;2.73;;;1.83;;
173;SDS011;75;48.784;9.364;2022-09-27T08:21:09;3.17;;;2.20;;
173;SDS011;75;48.784;9.364;2022-09-27T08:23:35;2.30;;;1.70;;
173;SDS011;75;48.784;9.364;2022-09-27T08:26:01;5.63;;;2.07;;
173;SDS011;75;48.784;9.364;2022-09-27T08:28:27;4.80;;;3.20;;
173;SDS011;75;48.784;9.364;2022-09-27T08:30:53;4.70;;;1.90;;
173;SDS011;75;48.784;9.364;2022-09-27T08:33:19;2.93;;;2.10;;
173;SDS011;75;48.784;9.364;2022-09-27T08:35:45;3.50;;;2.27;;
173;SDS011;75;48.784;9.364;2022-09-27T08:38:11;3.47;;;2.10;;
173;SDS011;75;48.784;9.364;2022-09-27T08:48:33;2.70;;;1.70;;
173;SDS011;75;48.784;9.364;2022-09-27T08:51:01;3.67;;;2.20;;
173;SDS011;75;48.784;9.364;2022-09-27T08:53:31;3.03;;;1.90;;
173;SDS011;75;48.784;9.364;2022-09-27T08:55:58;3.67;;;2.20;;
173;SDS011;75;48.784;9.364;2022-09-27T09:01:03;5.30;;;2.33;;
173;SDS011;75;48.784;9.364;2022-09-27T09:03:33;2.63;;;1.80;;
173;SDS011;75;48.784;9.364;2022-09-27T09:11:33;3.20;;;1.80;;
173;SDS011;75;48.784;9.364;2022-09-27T09:17:27;7.40;;;2.00;;
173;SDS011;75;48.784;9.364;2022-09-27T09:20:15;3.30;;;1.87;;
173;SDS011;75;48.784;9.364;2022-09-27T09:25:39;2.07;;;1.50;;
173;SDS011;75;48.784;9.364;2022-09-27T09:28:19;2.87;;;1.67;;
173;SDS011;75;48.784;9.364;2022-09-27T09:33:38;2.40;;;1.60;;
173;SDS011;75;48.784;9.364;2022-09-27T09:36:27;2.30;;;1.60;;
173;SDS011;75;48.784;9.364;2022-09-27T09:38:52;2.87;;;1.60;;
173;SDS011;75;48.784;9.364;2022-09-27T09:41:28;3.27;;;1.80;;
173;SDS011;75;48.784;9.364;2022-09-27T09:46:42;3.50;;;2.00;;
173;SDS011;75;48.784;9.364;2022-09-27T09:51:43;3.17;;;1.80;;
173;SDS011;75;48.784;9.364;2022-09-27T09:54:18;2.80;;;1.80;;
173;SDS011;75;48.784;9.364;2022-09-27T09:56:55;2.83;;;1.70;;
173;SDS011;75;48.784;9.364;2022-09-27T09:59:33;3.10;;;2.00;;
173;SDS011;75;48.784;9.364;2022-09-27T10:02:06;5.47;;;2.30;;
173;SDS011;75;48.784;9.364;2022-09-27T10:04:39;3.67;;;1.87;;
173;SDS011;75;48.784;9.364;2022-09-27T10:07:06;3.83;;;2.60;;
173;SDS011;75;48.784;9.364;2022-09-27T10:09:33;2.90;;;1.93;;
173;SDS011;75;48.784;9.364;2022-09-27T10:12:00;3.50;;;2.03;;
173;SDS011;75;48.784;9.364;2022-09-27T10:14:26;3.60;;;2.13;;
173;SDS011;75;48.784;9.364;2022-09-27T10:16:59;4.00;;;2.20;;
173;SDS011;75;48.784;9.364;2022-09-27T10:19:29;4.90;;;2.00;;
173;SDS011;75;48.784;9.364;2022-09-27T10:22:01;4.43;;;2.20;;
173;SDS011;75;48.784;9.364;2022-09-27T10:24:27;3.77;;;2.20;;
173;SDS011;75;48.784;9.364;2022-09-27T10:26:56;4.60;;;2.40;;
173;SDS011;75;48.784;9.364;2022-09-27T10:31:49;2.83;;;2.03;;
173;SDS011;75;48.784;9.364;2022-09-27T10:34:32;3.13;;;2.10;;
173;SDS011;75;48.784;9.364;2022-09-27T10:39:38;3.37;;;2.10;;
173;SDS011;75;48.784;9.364;2022-09-27T10:42:20;3.83;;;2.20;;
173;SDS011;75;48.784;9.364;2022-09-27T10:44:46;5.73;;;2.37;;
173;SDS011;75;48.784;9.364;2022-09-27T10:47:13;5.20;;;2.20;;
173;SDS011;75;48.784;9.364;2022-09-27T10:49:46;4.63;;;2.50;;
173;SDS011;75;48.784;9.364;2022-09-27T10:52:14;3.40;;;2.20;;
173;SDS011;75;48.784;9.364;2022-09-27T10:54:43;4.20;;;2.20;;
173;SDS011;75;48.784;9.364;2022-09-27T10:57:18;3.80;;;2.10;;
173;SDS011;75;48.784;9.364;2022-09-27T10:59:48;5.50;;;2.50;;
173;SDS011;75;48.784;9.364;2022-09-27T11:02:19;3.37;;;2.10;;
173;SDS011;75;48.784;9.364;2022-09-27T11:07:37;2.53;;;1.87;;
173;SDS011;75;48.784;9.364;2022-09-27T11:10:22;4.60;;;2.60;;
173;SDS011;75;48.784;9.364;2022-09-27T11:15:44;3.03;;;2.27;;
173;SDS011;75;48.784;9.364;2022-09-27T11:20:52;4.47;;;2.47;;
173;SDS011;75;48.784;9.364;2022-09-27T11:31:33;4.20;;;2.30;;
173;SDS011;75;48.784;9.364;2022-09-27T11:39:22;5.00;;;2.30;;
173;SDS011;75;48.784;9.364;2022-09-27T11:49:40;4.37;;;2.10;;
173;SDS011;75;48.784;9.364;2022-09-27T11:52:20;3.00;;;1.93;;
173;SDS011;75;48.784;9.364;2022-09-27T12:07:48;3.53;;;1.80;;
173;SDS011;75;48.784;9.364;2022-09-27T12:10:17;2.77;;;1.70;;
173;SDS011;75;48.784;9.364;2022-09-27T12:12:48;4.67;;;2.30;;
173;SDS011;75;48.784;9.364;2022-09-27T12:15:17;3.60;;;1.93;;
173;SDS011;75;48.784;9.364;2022-09-27T12:17:44;2.87;;;1.90;;
173;SDS011;75;48.784;9.364;2022-09-27T12:20:22;3.60;;;1.40;;
173;SDS011;75;48.784;9.364;2022-09-27T12:25:24;2.40;;;1.50;;
173;SDS011;75;48.784;9.364;2022-09-27T12:27:53;5.33;;;1.90;;
173;SDS011;75;48.784;9.364;2022-09-27T12:30:21;4.60;;;2.10;;
173;SDS011;75;48.784;9.364;2022-09-27T12:35:27;6.20;;;2.20;;
173;SDS011;75;48.784;9.364;2022-09-27T12:38:01;3.87;;;2.40;;
173;SDS011;75;48.784;9.364;2022-09-27T12:40:32;3.17;;;2.17;;
173;SDS011;75;48.784;9.364;2022-09-27T12:43:21;3.23;;;2.07;;
173;SDS011;75;48.784;9.364;2022-09-27T12:50:46;12.90;;;3.17;;
173;SDS011;75;48.784;9.364;2022-09-27T12:53:21;5.97;;;3.80;;
173;SDS011;75;48.784;9.364;2022-09-27T13:13:22;6.13;;;3.00;;
173;SDS011;75;48.784;9.364;2022-09-27T13:15:52;4.43;;;2.63;;
173;SDS011;75;48.784;9.364;2022-09-27T13:19:01;3.70;;;2.10;;
173;SDS011;75;48.784;9.364;2022-09-27T13:21:08;3.37;;;2.03;;
173;SDS011;75;48.784;9.364;2022-09-27T13:28:34;18.33;;;9.90;;
173;SDS011;75;48.784;9.364;2022-09-27T13:34:10;3.87;;;2.83;;
173;SDS011;75;48.784;9.364;2022-09-27T13:36:52;3.90;;;2.80;;
173;SDS011;75;48.784;9.364;2022-09-27T13:39:19;8.47;;;5.73;;
173;SDS011;75;48.784;9.364;2022-09-27T13:44:32;6.17;;;4.00;;
173;SDS011;75;48.784;9.364;2022-09-27T13:49:39;3.63;;;2.20;;
173;SDS011;75;48.784;9.364;2022-09-27T13:52:28;5.90;;;2.90;;
173;SDS011;75;48.784;9.364;2022-09-27T13:54:55;4.20;;;2.67;;
173;SDS011;75;48.784;9.364;2022-09-27T13:57:41;7.63;;;3.97;;
173;SDS011;75;48.784;9.364;2022-09-27T14:00:09;6.20;;;2.83;;
173;SDS011;75;48.784;9.364;2022-09-27T14:02:38;4.30;;;2.70;;
173;SDS011;75;48.784;9.364;2022-09-27T14:05:08;3.40;;;2.50;;
173;SDS011;75;48.784;9.364;2022-09-27T14:07:39;4.27;;;2.80;;
173;SDS011;75;48.784;9.364;2022-09-27T14:10:06;7.30;;;2.90;;
173;SDS011;75;48.784;9.364;2022-09-27T14:12:38;4.47;;;3.13;;
173;SDS011;75;48.784;9.364;2022-09-27T14:15:06;5.50;;;3.20;;
173;SDS011;75;48.784;9.364;2022-09-27T14:17:32;5.40;;;3.37;;
173;SDS011;75;48.784;9.364;2022-09-27T14:19:59;3.00;;;2.33;;
173;SDS011;75;48.784;9.364;2022-09-27T14:22:27;4.00;;;3.03;;
173;SDS011;75;48.784;9.364;2022-09-27T14:24:53;5.50;;;3.20;;
173;SDS011;75;48.784;9.364;2022-09-27T14:27:27;19.23;;;3.47;;
173;SDS011;75;48.784;9.364;2022-09-27T14:32:21;8.63;;;4.10;;
173;SDS011;75;48.784;9.364;2022-09-27T14:35:01;34.57;;;3.90;;
173;SDS011;75;48.784;9.364;2022-09-27T14:37:28;8.67;;;3.20;;
173;SDS011;75;48.784;9.364;2022-09-27T14:39:58;28.37;;;5.60;;
173;SDS011;75;48.784;9.364;2022-09-27T14:42:26;12.60;;;5.70;;
173;SDS011;75;48.784;9.364;2022-09-27T14:44:54;22.97;;;5.40;;
173;SDS011;75;48.784;9.364;2022-09-27T14:47:22;7.43;;;4.60;;
173;SDS011;75;48.784;9.364;2022-09-27T14:50:30;7.67;;;4.40;;
173;SDS011;75;48.784;9.364;2022-09-27T14:52:38;7.40;;;5.33;;
173;SDS011;75;48.784;9.364;2022-09-27T14:55:06;6.07;;;4.50;;
173;SDS011;75;48.784;9.364;2022-09-27T14:57:33;6.80;;;4.30;;
173;SDS011;75;48.784;9.364;2022-09-27T15:00:01;6.27;;;4.67;;
173;SDS011;75;48.784;9.364;2022-09-27T15:02:38;7.83;;;4.40;;
173;SDS011;75;48.784;9.364;2022-09-27T15:05:10;9.03;;;6.13;;
173;SDS011;75;48.784;9.364;2022-09-27T15:07:38;8.90;;;6.10;;
173;SDS011;75;48.784;9.364;2022-09-27T15:10:04;7.03;;;4.13;;
173;SDS011;75;48.784;9.364;2022-09-27T15:12:31;5.23;;;4.10;;
173;SDS011;75;48.784;9.364;2022-09-27T15:14:58;5.77;;;4.03;;
173;SDS011;75;48.784;9.364;2022-09-27T15:17:25;3.30;;;2.27;;
173;SDS011;75;48.784;9.364;2022-09-27T15:20:00;5.50;;;3.23;;
173;SDS011;75;48.784;9.364;2022-09-27T15:22:42;5.67;;;3.60;;
173;SDS011;75;48.784;9.364;2022-09-27T15:27:45;6.57;;;5.07;;
173;SDS011;75;48.784;9.364;2022-09-27T15:30:15;4.80;;;3.37;;
173;SDS011;75;48.784;9.364;2022-09-27T15:32:46;4.50;;;3.60;;
173;SDS011;75;48.784;9.364;2022-09-27T15:35:14;9.43;;;4.40;;
173;SDS011;75;48.784;9.364;2022-09-27T15:37:44;7.10;;;4.40;;
173;SDS011;75;48.784;9.364;2022-09-27T15:42:56;12.40;;;7.20;;
173;SDS011;75;48.784;9.364;2022-09-27T15:45:27;16.00;;;8.93;;
173;SDS011;75;48.784;9.364;2022-09-27T15:47:53;22.77;;;10.50;;
173;SDS011;75;48.784;9.364;2022-09-27T15:52:55;7.33;;;4.50;;
173;SDS011;75;48.784;9.364;2022-09-27T15:55:22;6.47;;;4.10;;
173;SDS011;75;48.784;9.364;2022-09-27T15:57:57;5.90;;;4.43;;
173;SDS011;75;48.784;9.364;2022-09-27T16:00:23;6.10;;;3.50;;
173;SDS011;75;48.784;9.364;2022-09-27T16:02:50;5.40;;;3.47;;
173;SDS011;75;48.784;9.364;2022-09-27T16:05:17;7.40;;;3.40;;
173;SDS011;75;48.784;9.364;2022-09-27T16:07:43;5.57;;;2.90;;
173;SDS011;75;48.784;9.364;2022-09-27T16:10:13;5.37;;;2.70;;
173;SDS011;75;48.784;9.364;2022-09-27T16:12:41;3.50;;;2.60;;
173;SDS011;75;48.784;9.364;2022-09-27T16:15:09;3.30;;;2.60;;
173;SDS011;75;48.784;9.364;2022-09-27T16:17:35;3.53;;;2.90;;
173;SDS011;75;48.784;9.364;2022-09-27T16:20:03;6.67;;;4.67;;
173;SDS011;75;48.784;9.364;2022-09-27T16:22:29;4.97;;;3.30;;
173;SDS011;75;48.784;9.364;2022-09-27T16:24:55;3.63;;;2.70;;
173;SDS011;75;48.784;9.364;2022-09-27T16:27:24;4.30;;;2.87;;
173;SDS011;75;48.784;9.364;2022-09-27T16:29:54;4.53;;;2.60;;
173;SDS011;75;48.784;9.364;2022-09-27T16:32:22;4.90;;;3.10;;
173;SDS011;75;48.784;9.364;2022-09-27T16:34:48;3.53;;;2.50;;
173;SDS011;75;48.784;9.364;2022-09-27T16:37:14;4.77;;;2.70;;
173;SDS011;75;48.784;9.364;2022-09-27T16:39:40;4.63;;;3.00;;
173;SDS011;75;48.784;9.364;2022-09-27T16:42:06;4.93;;;3.50;;
173;SDS011;75;48.784;9.364;2022-09-27T16:44:33;6.10;;;3.20;;
173;SDS011;75;48.784;9.364;2022-09-27T16:47:00;6.83;;;3.27;;
173;SDS011;75;48.784;9.364;2022-09-27T16:49:28;6.83;;;4.03;;
173;SDS011;75;48.784;9.364;2022-09-27T16:52:13;6.77;;;3.50;;
173;SDS011;75;48.784;9.364;2022-09-27T16:54:40;6.23;;;3.70;;
173;SDS011;75;48.784;9.364;2022-09-27T16:57:06;6.40;;;3.93;;
173;SDS011;75;48.784;9.364;2022-09-27T16:59:32;10.43;;;6.80;;
173;SDS011;75;48.784;9.364;2022-09-27T17:01:58;6.10;;;4.97;;
173;SDS011;75;48.784;9.364;2022-09-27T17:04:25;7.80;;;4.37;;
173;SDS011;75;48.784;9.364;2022-09-27T17:06:51;5.43;;;3.60;;
173;SDS011;75;48.784;9.364;2022-09-27T17:09:18;7.30;;;4.20;;
173;SDS011;75;48.784;9.364;2022-09-27T17:11:44;9.30;;;4.27;;
173;SDS011;75;48.784;9.364;2022-09-27T17:14:10;7.30;;;3.83;;
173;SDS011;75;48.784;9.364;2022-09-27T17:16:38;5.33;;;3.10;;
173;SDS011;75;48.784;9.364;2022-09-27T17:19:04;4.47;;;3.40;;
173;SDS011;75;48.784;9.364;2022-09-27T17:21:30;5.70;;;3.30;;
173;SDS011;75;48.784;9.364;2022-09-27T17:23:56;4.87;;;3.20;;
173;SDS011;75;48.784;9.364;2022-09-27T17:26:22;5.10;;;3.60;;
173;SDS011;75;48.784;9.364;2022-09-27T17:28:50;4.90;;;3.00;;
173;SDS011;75;48.784;9.364;2022-09-27T17:31:21;8.53;;;3.63;;
173;SDS011;75;48.784;9.364;2022-09-27T17:33:49;4.97;;;3.40;;
173;SDS011;75;48.784;9.364;2022-09-27T17:36:20;6.60;;;3.80;;
173;SDS011;75;48.784;9.364;2022-09-27T17:38:47;6.60;;;3.90;;
173;SDS011;75;48.784;9.364;2022-09-27T17:41:14;6.70;;;3.90;;
173;SDS011;75;48.784;9.364;2022-09-27T17:43:42;7.50;;;3.60;;
173;SDS011;75;48.784;9.364;2022-09-27T17:46:15;8.17;;;3.60;;
173;SDS011;75;48.784;9.364;2022-09-27T17:48:41;5.07;;;3.37;;
173;SDS011;75;48.784;9.364;2022-09-27T17:51:26;6.57;;;4.20;;
173;SDS011;75;48.784;9.364;2022-09-27T17:53:53;7.67;;;3.90;;
173;SDS011;75;48.784;9.364;2022-09-27T17:56:19;6.90;;;3.60;;
173;SDS011;75;48.784;9.364;2022-09-27T17:58:51;5.83;;;3.20;;
173;SDS011;75;48.784;9.364;2022-09-27T18:01:18;21.07;;;11.07;;
173;SDS011;75;48.784;9.364;2022-09-27T18:03:44;22.50;;;14.30;;
173;SDS011;75;48.784;9.364;2022-09-27T18:06:11;7.63;;;3.30;;
173;SDS011;75;48.784;9.364;2022-09-27T18:08:38;9.10;;;5.30;;
173;SDS011;75;48.784;9.364;2022-09-27T18:11:08;3.77;;;2.63;;
173;SDS011;75;48.784;9.364;2022-09-27T18:13:34;7.67;;;4.50;;
173;SDS011;75;48.784;9.364;2022-09-27T18:16:07;10.60;;;6.50;;
173;SDS011;75;48.784;9.364;2022-09-27T18:18:34;9.33;;;6.80;;
173;SDS011;75;48.784;9.364;2022-09-27T18:21:05;8.47;;;5.13;;
173;SDS011;75;48.784;9.364;2022-09-27T18:23:33;7.80;;;4.67;;
173;SDS011;75;48.784;9.364;2022-09-27T18:25:59;10.77;;;5.73;;
173;SDS011;75;48.784;9.364;2022-09-27T18:28:27;5.10;;;3.30;;
173;SDS011;75;48.784;9.364;2022-09-27T18:30:54;6.00;;;3.70;;
173;SDS011;75;48.784;9.364;2022-09-27T18:33:20;7.40;;;5.40;;
173;SDS011;75;48.784;9.364;2022-09-27T18:35:46;7.47;;;5.17;;
173;SDS011;75;48.784;9.364;2022-09-27T18:38:12;7.00;;;3.80;;
173;SDS011;75;48.784;9.364;2022-09-27T18:40:39;3.80;;;2.70;;
173;SDS011;75;48.784;9.364;2022-09-27T18:43:05;5.80;;;3.90;;
173;SDS011;75;48.784;9.364;2022-09-27T18:45:33;6.30;;;4.03;;
173;SDS011;75;48.784;9.364;2022-09-27T18:48:00;6.10;;;3.30;;
173;SDS011;75;48.784;9.364;2022-09-27T18:50:26;7.40;;;2.77;;
173;SDS011;75;48.784;9.364;2022-09-27T18:52:53;5.00;;;3.80;;
173;SDS011;75;48.784;9.364;2022-09-27T18:55:19;10.37;;;7.47;;
173;SDS011;75;48.784;9.364;2022-09-27T18:57:45;5.80;;;4.27;;
173;SDS011;75;48.784;9.364;2022-09-27T19:00:11;5.77;;;3.43;;